sensor_id;sensor_type;location;lat;lon;timestamp;temperature;humidity
41310;DHT22;27057;51.438;-0.010;2023-08-31T00:01:33;14.80;99.90
41310;DHT22;27057;51.438;-0.010;2023-08-31T00:04:01;14.80;99.90
41310;DHT22;27057;51.438;-0.010;2023-08-31T00:06:28;14.80;99.90
41310;DHT22;27057;51.438;-0.010;2023-08-31T00:08:55;14.80;99.90
41310;DHT22;27057;51.438;-0.010;2023-08-31T00:11:23;14.80;99.90
41310;DHT22;27057;51.438;-0.010;2023-08-31T00:13:51;14.80;99.90
41310;DHT22;27057;51.438;-0.010;2023-08-31T00:16:24;14.80;99.90
41310;DHT22;27057;51.438;-0.010;2023-08-31T00:18:53;14.80;99.90
41310;DHT22;27057;51.438;-0.010;2023-08-31T00:21:21;14.90;99.90
41310;DHT22;27057;51.438;-0.010;2023-08-31T00:23:49;14.80;99.90
41310;DHT22;27057;51.438;-0.010;2023-08-31T00:26:16;14.90;99.90
41310;DHT22;27057;51.438;-0.010;2023-08-31T00:28:47;14.80;99.90
41310;DHT22;27057;51.438;-0.010;2023-08-31T00:31:14;14.70;99.90
41310;DHT22;27057;51.438;-0.010;2023-08-31T00:33:42;14.60;99.90
41310;DHT22;27057;51.438;-0.010;2023-08-31T00:36:10;14.60;99.90
41310;DHT22;27057;51.438;-0.010;2023-08-31T00:38:38;14.60;99.90
41310;DHT22;27057;51.438;-0.010;2023-08-31T00:41:08;14.50;99.90
41310;DHT22;27057;51.438;-0.010;2023-08-31T00:43:36;14.50;99.90
41310;DHT22;27057;51.438;-0.010;2023-08-31T00:46:03;14.40;99.90
41310;DHT22;27057;51.438;-0.010;2023-08-31T00:48:31;14.40;99.90
41310;DHT22;27057;51.438;-0.010;2023-08-31T00:50:59;14.40;99.90
41310;DHT22;27057;51.438;-0.010;2023-08-31T00:53:29;14.40;99.90
41310;DHT22;27057;51.438;-0.010;2023-08-31T00:55:57;14.30;99.90
41310;DHT22;27057;51.438;-0.010;2023-08-31T00:58:26;14.30;99.90
41310;DHT22;27057;51.438;-0.010;2023-08-31T01:03:52;14.20;99.90
41310;DHT22;27057;51.438;-0.010;2023-08-31T01:09:08;14.20;99.90
41310;DHT22;27057;51.438;-0.010;2023-08-31T01:14:19;14.10;99.90
41310;DHT22;27057;51.438;-0.010;2023-08-31T01:16:50;14.10;99.90
41310;DHT22;27057;51.438;-0.010;2023-08-31T01:22:13;14.10;99.90
41310;DHT22;27057;51.438;-0.010;2023-08-31T01:24:42;14.10;99.90
41310;DHT22;27057;51.438;-0.010;2023-08-31T01:27:10;14.10;99.90
41310;DHT22;27057;51.438;-0.010;2023-08-31T01:29:38;14.10;99.90
41310;DHT22;27057;51.438;-0.010;2023-08-31T01:32:06;14.10;99.90
41310;DHT22;27057;51.438;-0.010;2023-08-31T01:34:34;14.10;99.90
41310;DHT22;27057;51.438;-0.010;2023-08-31T01:37:07;14.00;99.90
41310;DHT22;27057;51.438;-0.010;2023-08-31T01:39:48;14.10;99.90
41310;DHT22;27057;51.438;-0.010;2023-08-31T01:42:17;14.10;99.90
41310;DHT22;27057;51.438;-0.010;2023-08-31T01:44:46;14.00;99.90
41310;DHT22;27057;51.438;-0.010;2023-08-31T01:47:15;13.90;99.90
41310;DHT22;27057;51.438;-0.010;2023-08-31T01:49:45;13.90;99.90
41310;DHT22;27057;51.438;-0.010;2023-08-31T01:52:12;13.90;99.90
41310;DHT22;27057;51.438;-0.010;2023-08-31T01:54:39;13.90;99.90
41310;DHT22;27057;51.438;-0.010;2023-08-31T01:57:07;13.90;99.90
41310;DHT22;27057;51.438;-0.010;2023-08-31T01:59:54;13.80;99.90
41310;DHT22;27057;51.438;-0.010;2023-08-31T02:02:22;13.90;99.90
41310;DHT22;27057;51.438;-0.010;2023-08-31T02:04:49;13.80;99.90
41310;DHT22;27057;51.438;-0.010;2023-08-31T02:07:18;13.80;99.90
41310;DHT22;27057;51.438;-0.010;2023-08-31T02:09:46;13.80;99.90
41310;DHT22;27057;51.438;-0.010;2023-08-31T02:12:13;15.00;99.90
41310;DHT22;27057;51.438;-0.010;2023-08-31T02:14:40;13.80;99.90
41310;DHT22;27057;51.438;-0.010;2023-08-31T02:17:08;13.80;99.90
41310;DHT22;27057;51.438;-0.010;2023-08-31T02:19:35;13.80;99.90
41310;DHT22;27057;51.438;-0.010;2023-08-31T02:22:03;13.80;99.90
41310;DHT22;27057;51.438;-0.010;2023-08-31T02:24:30;13.70;99.90
41310;DHT22;27057;51.438;-0.010;2023-08-31T02:26:57;13.70;99.90
41310;DHT22;27057;51.438;-0.010;2023-08-31T02:29:26;13.70;99.90
41310;DHT22;27057;51.438;-0.010;2023-08-31T02:31:53;13.80;99.90
41310;DHT22;27057;51.438;-0.010;2023-08-31T02:34:20;13.80;99.90
41310;DHT22;27057;51.438;-0.010;2023-08-31T02:36:48;13.80;99.90
41310;DHT22;27057;51.438;-0.010;2023-08-31T02:39:16;13.80;99.90
41310;DHT22;27057;51.438;-0.010;2023-08-31T02:41:43;13.80;99.90
41310;DHT22;27057;51.438;-0.010;2023-08-31T02:44:11;13.80;99.90
41310;DHT22;27057;51.438;-0.010;2023-08-31T02:46:38;13.80;99.90
41310;DHT22;27057;51.438;-0.010;2023-08-31T02:49:06;13.70;99.90
41310;DHT22;27057;51.438;-0.010;2023-08-31T02:51:34;13.80;99.90
41310;DHT22;27057;51.438;-0.010;2023-08-31T02:54:01;13.70;99.90
41310;DHT22;27057;51.438;-0.010;2023-08-31T02:56:30;13.70;99.90
41310;DHT22;27057;51.438;-0.010;2023-08-31T02:58:57;13.70;99.90
41310;DHT22;27057;51.438;-0.010;2023-08-31T03:01:25;13.70;99.90
41310;DHT22;27057;51.438;-0.010;2023-08-31T03:03:53;13.70;99.90
41310;DHT22;27057;51.438;-0.010;2023-08-31T03:06:21;13.80;99.90
41310;DHT22;27057;51.438;-0.010;2023-08-31T03:08:49;13.70;99.90
41310;DHT22;27057;51.438;-0.010;2023-08-31T03:11:16;13.70;99.90
41310;DHT22;27057;51.438;-0.010;2023-08-31T03:13:43;13.60;99.90
41310;DHT22;27057;51.438;-0.010;2023-08-31T03:16:12;13.70;99.90
41310;DHT22;27057;51.438;-0.010;2023-08-31T03:18:40;13.70;99.90
41310;DHT22;27057;51.438;-0.010;2023-08-31T03:21:07;13.60;99.90
41310;DHT22;27057;51.438;-0.010;2023-08-31T03:23:35;13.70;99.90
41310;DHT22;27057;51.438;-0.010;2023-08-31T03:26:09;13.60;99.90
41310;DHT22;27057;51.438;-0.010;2023-08-31T03:28:36;13.60;99.90
41310;DHT22;27057;51.438;-0.010;2023-08-31T03:31:07;13.60;99.90
41310;DHT22;27057;51.438;-0.010;2023-08-31T03:33:35;13.60;99.90
41310;DHT22;27057;51.438;-0.010;2023-08-31T03:36:03;13.60;99.90
41310;DHT22;27057;51.438;-0.010;2023-08-31T03:38:33;13.60;99.90
41310;DHT22;27057;51.438;-0.010;2023-08-31T03:41:05;13.60;99.90
41310;DHT22;27057;51.438;-0.010;2023-08-31T03:43:32;13.60;99.90
41310;DHT22;27057;51.438;-0.010;2023-08-31T03:46:00;13.60;99.90
41310;DHT22;27057;51.438;-0.010;2023-08-31T03:48:28;13.60;99.90
41310;DHT22;27057;51.438;-0.010;2023-08-31T03:50:55;13.60;99.90
41310;DHT22;27057;51.438;-0.010;2023-08-31T03:53:23;13.60;99.90
41310;DHT22;27057;51.438;-0.010;2023-08-31T03:55:55;13.50;99.90
41310;DHT22;27057;51.438;-0.010;2023-08-31T03:58:24;13.50;99.90
41310;DHT22;27057;51.438;-0.010;2023-08-31T04:00:52;13.50;99.90
41310;DHT22;27057;51.438;-0.010;2023-08-31T04:03:20;13.50;99.90
41310;DHT22;27057;51.438;-0.010;2023-08-31T04:05:48;13.50;99.90
41310;DHT22;27057;51.438;-0.010;2023-08-31T04:08:15;13.40;99.90
41310;DHT22;27057;51.438;-0.010;2023-08-31T04:10:42;13.30;99.90
41310;DHT22;27057;51.438;-0.010;2023-08-31T04:13:10;13.40;99.90
41310;DHT22;27057;51.438;-0.010;2023-08-31T04:15:38;13.40;99.90
41310;DHT22;27057;51.438;-0.010;2023-08-31T04:18:05;13.30;99.90
41310;DHT22;27057;51.438;-0.010;2023-08-31T04:20:33;13.30;99.90
41310;DHT22;27057;51.438;-0.010;2023-08-31T04:23:01;13.30;99.90
41310;DHT22;27057;51.438;-0.010;2023-08-31T04:25:29;13.40;99.90
41310;DHT22;27057;51.438;-0.010;2023-08-31T04:27:58;13.30;99.90
41310;DHT22;27057;51.438;-0.010;2023-08-31T04:30:26;13.30;99.90
41310;DHT22;27057;51.438;-0.010;2023-08-31T04:32:53;13.30;99.90
41310;DHT22;27057;51.438;-0.010;2023-08-31T04:35:21;13.30;99.90
41310;DHT22;27057;51.438;-0.010;2023-08-31T04:37:50;13.30;99.90
41310;DHT22;27057;51.438;-0.010;2023-08-31T04:40:18;13.30;99.90
41310;DHT22;27057;51.438;-0.010;2023-08-31T04:42:45;13.30;99.90
41310;DHT22;27057;51.438;-0.010;2023-08-31T04:45:12;13.30;99.90
41310;DHT22;27057;51.438;-0.010;2023-08-31T04:47:40;13.20;99.90
41310;DHT22;27057;51.438;-0.010;2023-08-31T04:50:08;13.30;99.90
41310;DHT22;27057;51.438;-0.010;2023-08-31T04:52:35;13.30;99.90
41310;DHT22;27057;51.438;-0.010;2023-08-31T04:55:05;13.30;99.90
41310;DHT22;27057;51.438;-0.010;2023-08-31T04:57:35;13.30;99.90
41310;DHT22;27057;51.438;-0.010;2023-08-31T05:00:02;13.30;99.90
41310;DHT22;27057;51.438;-0.010;2023-08-31T05:02:30;13.30;99.90
41310;DHT22;27057;51.438;-0.010;2023-08-31T05:04:58;13.30;99.90
41310;DHT22;27057;51.438;-0.010;2023-08-31T05:07:25;13.30;99.90
41310;DHT22;27057;51.438;-0.010;2023-08-31T05:09:52;13.30;99.90
41310;DHT22;27057;51.438;-0.010;2023-08-31T05:12:20;13.30;99.90
41310;DHT22;27057;51.438;-0.010;2023-08-31T05:14:48;13.30;99.90
41310;DHT22;27057;51.438;-0.010;2023-08-31T05:17:16;13.30;99.90
41310;DHT22;27057;51.438;-0.010;2023-08-31T05:19:43;13.30;99.90
41310;DHT22;27057;51.438;-0.010;2023-08-31T05:22:10;13.30;99.90
41310;DHT22;27057;51.438;-0.010;2023-08-31T05:24:38;13.30;99.90
41310;DHT22;27057;51.438;-0.010;2023-08-31T05:27:05;13.40;99.90
41310;DHT22;27057;51.438;-0.010;2023-08-31T05:29:32;13.40;99.90
41310;DHT22;27057;51.438;-0.010;2023-08-31T05:32:00;13.40;99.90
41310;DHT22;27057;51.438;-0.010;2023-08-31T05:34:27;13.30;99.90
41310;DHT22;27057;51.438;-0.010;2023-08-31T05:36:54;13.40;99.90
41310;DHT22;27057;51.438;-0.010;2023-08-31T05:39:22;13.40;99.90
41310;DHT22;27057;51.438;-0.010;2023-08-31T05:41:49;13.40;99.90
41310;DHT22;27057;51.438;-0.010;2023-08-31T05:44:16;13.40;99.90
41310;DHT22;27057;51.438;-0.010;2023-08-31T05:46:44;13.40;99.90
41310;DHT22;27057;51.438;-0.010;2023-08-31T05:49:11;13.50;99.90
41310;DHT22;27057;51.438;-0.010;2023-08-31T05:51:39;13.50;99.90
41310;DHT22;27057;51.438;-0.010;2023-08-31T05:54:06;13.40;99.90
41310;DHT22;27057;51.438;-0.010;2023-08-31T05:56:39;13.60;99.90
41310;DHT22;27057;51.438;-0.010;2023-08-31T05:59:09;13.50;99.90
41310;DHT22;27057;51.438;-0.010;2023-08-31T06:01:36;13.60;99.90
41310;DHT22;27057;51.438;-0.010;2023-08-31T06:04:04;13.70;99.90
41310;DHT22;27057;51.438;-0.010;2023-08-31T06:06:32;13.70;99.90
41310;DHT22;27057;51.438;-0.010;2023-08-31T06:09:00;13.70;99.90
41310;DHT22;27057;51.438;-0.010;2023-08-31T06:11:27;13.80;99.90
41310;DHT22;27057;51.438;-0.010;2023-08-31T06:13:55;13.80;99.90
41310;DHT22;27057;51.438;-0.010;2023-08-31T06:16:22;13.90;99.90
41310;DHT22;27057;51.438;-0.010;2023-08-31T06:18:51;13.80;99.90
41310;DHT22;27057;51.438;-0.010;2023-08-31T06:21:19;13.90;99.90
41310;DHT22;27057;51.438;-0.010;2023-08-31T06:23:46;13.90;99.90
41310;DHT22;27057;51.438;-0.010;2023-08-31T06:26:13;13.90;99.90
41310;DHT22;27057;51.438;-0.010;2023-08-31T06:28:41;14.00;99.90
41310;DHT22;27057;51.438;-0.010;2023-08-31T06:31:08;14.00;99.90
41310;DHT22;27057;51.438;-0.010;2023-08-31T06:33:36;14.00;99.90
41310;DHT22;27057;51.438;-0.010;2023-08-31T06:36:03;14.10;99.90
41310;DHT22;27057;51.438;-0.010;2023-08-31T06:38:31;14.10;99.90
41310;DHT22;27057;51.438;-0.010;2023-08-31T06:40:58;14.20;99.90
41310;DHT22;27057;51.438;-0.010;2023-08-31T06:43:26;14.30;99.90
41310;DHT22;27057;51.438;-0.010;2023-08-31T06:45:54;14.40;99.90
41310;DHT22;27057;51.438;-0.010;2023-08-31T06:48:24;14.30;99.90
41310;DHT22;27057;51.438;-0.010;2023-08-31T06:50:52;14.30;99.90
41310;DHT22;27057;51.438;-0.010;2023-08-31T06:53:19;14.40;99.90
41310;DHT22;27057;51.438;-0.010;2023-08-31T06:55:47;14.50;99.90
41310;DHT22;27057;51.438;-0.010;2023-08-31T06:58:14;14.40;99.90
41310;DHT22;27057;51.438;-0.010;2023-08-31T07:00:41;14.50;99.90
41310;DHT22;27057;51.438;-0.010;2023-08-31T07:03:09;14.50;99.90
41310;DHT22;27057;51.438;-0.010;2023-08-31T07:05:41;14.60;99.90
41310;DHT22;27057;51.438;-0.010;2023-08-31T07:08:09;14.40;99.90
41310;DHT22;27057;51.438;-0.010;2023-08-31T07:10:37;14.50;99.90
41310;DHT22;27057;51.438;-0.010;2023-08-31T07:13:05;14.70;99.90
41310;DHT22;27057;51.438;-0.010;2023-08-31T07:15:32;14.60;99.90
41310;DHT22;27057;51.438;-0.010;2023-08-31T07:18:00;14.70;99.90
41310;DHT22;27057;51.438;-0.010;2023-08-31T07:20:27;14.80;99.90
41310;DHT22;27057;51.438;-0.010;2023-08-31T07:22:54;14.80;99.90
41310;DHT22;27057;51.438;-0.010;2023-08-31T07:25:22;14.90;99.90
41310;DHT22;27057;51.438;-0.010;2023-08-31T07:27:49;15.00;99.90
41310;DHT22;27057;51.438;-0.010;2023-08-31T07:30:16;15.20;99.90
41310;DHT22;27057;51.438;-0.010;2023-08-31T07:32:44;15.20;99.90
41310;DHT22;27057;51.438;-0.010;2023-08-31T07:35:11;15.30;99.90
41310;DHT22;27057;51.438;-0.010;2023-08-31T07:37:39;15.40;99.90
41310;DHT22;27057;51.438;-0.010;2023-08-31T07:40:07;15.40;99.90
41310;DHT22;27057;51.438;-0.010;2023-08-31T07:42:37;15.50;99.90
41310;DHT22;27057;51.438;-0.010;2023-08-31T07:45:05;15.70;99.90
41310;DHT22;27057;51.438;-0.010;2023-08-31T07:47:32;15.70;99.90
41310;DHT22;27057;51.438;-0.010;2023-08-31T07:50:01;15.70;99.90
41310;DHT22;27057;51.438;-0.010;2023-08-31T07:52:29;15.80;99.90
41310;DHT22;27057;51.438;-0.010;2023-08-31T07:54:57;15.90;99.90
41310;DHT22;27057;51.438;-0.010;2023-08-31T07:57:24;15.90;99.90
41310;DHT22;27057;51.438;-0.010;2023-08-31T07:59:51;15.90;99.90
41310;DHT22;27057;51.438;-0.010;2023-08-31T08:02:19;16.00;99.90
41310;DHT22;27057;51.438;-0.010;2023-08-31T08:04:47;16.00;99.90
41310;DHT22;27057;51.438;-0.010;2023-08-31T08:07:14;16.10;99.90
41310;DHT22;27057;51.438;-0.010;2023-08-31T08:09:41;16.20;99.90
41310;DHT22;27057;51.438;-0.010;2023-08-31T08:12:08;16.20;99.90
41310;DHT22;27057;51.438;-0.010;2023-08-31T08:14:36;16.40;99.90
41310;DHT22;27057;51.438;-0.010;2023-08-31T08:17:03;16.30;99.90
41310;DHT22;27057;51.438;-0.010;2023-08-31T08:19:31;16.30;99.90
41310;DHT22;27057;51.438;-0.010;2023-08-31T08:21:58;16.40;99.90
41310;DHT22;27057;51.438;-0.010;2023-08-31T08:24:25;16.40;99.90
41310;DHT22;27057;51.438;-0.010;2023-08-31T08:26:53;16.50;99.90
41310;DHT22;27057;51.438;-0.010;2023-08-31T08:29:20;16.60;99.90
41310;DHT22;27057;51.438;-0.010;2023-08-31T08:31:47;16.70;99.90
41310;DHT22;27057;51.438;-0.010;2023-08-31T08:34:15;16.70;99.90
41310;DHT22;27057;51.438;-0.010;2023-08-31T08:36:42;16.80;99.90
41310;DHT22;27057;51.438;-0.010;2023-08-31T08:39:10;16.80;99.90
41310;DHT22;27057;51.438;-0.010;2023-08-31T08:41:37;16.90;99.90
41310;DHT22;27057;51.438;-0.010;2023-08-31T08:44:08;16.80;99.90
41310;DHT22;27057;51.438;-0.010;2023-08-31T08:46:36;16.90;99.90
41310;DHT22;27057;51.438;-0.010;2023-08-31T08:49:04;17.00;99.90
41310;DHT22;27057;51.438;-0.010;2023-08-31T08:51:32;17.00;99.90
41310;DHT22;27057;51.438;-0.010;2023-08-31T08:54:00;17.00;99.90
41310;DHT22;27057;51.438;-0.010;2023-08-31T08:56:28;17.10;99.90
41310;DHT22;27057;51.438;-0.010;2023-08-31T08:58:55;17.10;99.90
41310;DHT22;27057;51.438;-0.010;2023-08-31T09:01:23;17.10;99.90
41310;DHT22;27057;51.438;-0.010;2023-08-31T09:03:54;17.00;99.90
41310;DHT22;27057;51.438;-0.010;2023-08-31T09:06:22;17.10;99.90
41310;DHT22;27057;51.438;-0.010;2023-08-31T09:08:54;17.00;99.90
41310;DHT22;27057;51.438;-0.010;2023-08-31T09:11:23;16.90;99.90
41310;DHT22;27057;51.438;-0.010;2023-08-31T09:13:51;16.90;99.90
41310;DHT22;27057;51.438;-0.010;2023-08-31T09:16:27;17.00;99.90
41310;DHT22;27057;51.438;-0.010;2023-08-31T09:18:57;16.90;99.90
41310;DHT22;27057;51.438;-0.010;2023-08-31T09:21:37;17.00;99.90
41310;DHT22;27057;51.438;-0.010;2023-08-31T09:24:05;17.10;99.90
41310;DHT22;27057;51.438;-0.010;2023-08-31T09:26:47;17.10;99.90
41310;DHT22;27057;51.438;-0.010;2023-08-31T09:29:14;17.00;99.90
41310;DHT22;27057;51.438;-0.010;2023-08-31T09:31:45;16.90;99.90
41310;DHT22;27057;51.438;-0.010;2023-08-31T09:34:14;16.90;99.90
41310;DHT22;27057;51.438;-0.010;2023-08-31T09:36:43;16.80;99.90
41310;DHT22;27057;51.438;-0.010;2023-08-31T09:39:13;16.80;99.90
41310;DHT22;27057;51.438;-0.010;2023-08-31T09:41:54;16.80;99.90
41310;DHT22;27057;51.438;-0.010;2023-08-31T09:44:22;16.80;99.90
41310;DHT22;27057;51.438;-0.010;2023-08-31T09:46:49;16.80;99.90
41310;DHT22;27057;51.438;-0.010;2023-08-31T09:49:17;16.80;99.90
41310;DHT22;27057;51.438;-0.010;2023-08-31T09:51:50;16.70;99.90
41310;DHT22;27057;51.438;-0.010;2023-08-31T09:54:19;16.60;99.90
41310;DHT22;27057;51.438;-0.010;2023-08-31T09:56:48;16.70;99.90
41310;DHT22;27057;51.438;-0.010;2023-08-31T09:59:16;16.60;99.90
41310;DHT22;27057;51.438;-0.010;2023-08-31T10:01:47;16.60;99.90
41310;DHT22;27057;51.438;-0.010;2023-08-31T10:04:15;16.60;99.90
41310;DHT22;27057;51.438;-0.010;2023-08-31T10:06:43;16.60;99.90
41310;DHT22;27057;51.438;-0.010;2023-08-31T10:09:11;16.70;99.90
41310;DHT22;27057;51.438;-0.010;2023-08-31T10:11:39;16.70;99.90
41310;DHT22;27057;51.438;-0.010;2023-08-31T10:14:07;16.70;99.90
41310;DHT22;27057;51.438;-0.010;2023-08-31T10:16:38;16.70;99.90
41310;DHT22;27057;51.438;-0.010;2023-08-31T10:19:09;16.70;99.90
41310;DHT22;27057;51.438;-0.010;2023-08-31T10:21:36;16.70;99.90
41310;DHT22;27057;51.438;-0.010;2023-08-31T10:24:05;16.70;99.90
41310;DHT22;27057;51.438;-0.010;2023-08-31T10:26:33;16.60;99.90
41310;DHT22;27057;51.438;-0.010;2023-08-31T10:29:01;16.60;99.90
41310;DHT22;27057;51.438;-0.010;2023-08-31T10:31:34;16.60;99.90
41310;DHT22;27057;51.438;-0.010;2023-08-31T10:34:05;16.70;99.90
41310;DHT22;27057;51.438;-0.010;2023-08-31T10:36:44;16.70;99.90
41310;DHT22;27057;51.438;-0.010;2023-08-31T10:39:14;16.80;99.90
41310;DHT22;27057;51.438;-0.010;2023-08-31T10:42:01;17.00;99.90
41310;DHT22;27057;51.438;-0.010;2023-08-31T10:44:31;17.30;99.90
41310;DHT22;27057;51.438;-0.010;2023-08-31T10:47:03;17.30;99.90
41310;DHT22;27057;51.438;-0.010;2023-08-31T10:49:32;17.70;99.90
41310;DHT22;27057;51.438;-0.010;2023-08-31T10:52:18;18.00;99.90
41310;DHT22;27057;51.438;-0.010;2023-08-31T10:55:04;18.00;99.90
41310;DHT22;27057;51.438;-0.010;2023-08-31T10:57:32;18.20;99.90
41310;DHT22;27057;51.438;-0.010;2023-08-31T11:00:03;18.40;99.90
41310;DHT22;27057;51.438;-0.010;2023-08-31T11:02:43;18.60;99.90
41310;DHT22;27057;51.438;-0.010;2023-08-31T11:05:13;18.70;99.90
41310;DHT22;27057;51.438;-0.010;2023-08-31T11:07:48;18.60;99.90
41310;DHT22;27057;51.438;-0.010;2023-08-31T11:10:18;18.70;99.90
41310;DHT22;27057;51.438;-0.010;2023-08-31T11:12:50;18.80;99.90
41310;DHT22;27057;51.438;-0.010;2023-08-31T11:15:21;18.90;99.90
41310;DHT22;27057;51.438;-0.010;2023-08-31T11:17:50;18.90;99.90
41310;DHT22;27057;51.438;-0.010;2023-08-31T11:20:23;18.80;99.90
41310;DHT22;27057;51.438;-0.010;2023-08-31T11:22:51;18.80;99.90
41310;DHT22;27057;51.438;-0.010;2023-08-31T11:25:22;18.70;99.90
41310;DHT22;27057;51.438;-0.010;2023-08-31T11:27:58;18.80;99.90
41310;DHT22;27057;51.438;-0.010;2023-08-31T11:30:28;18.80;99.90
41310;DHT22;27057;51.438;-0.010;2023-08-31T11:33:06;18.80;99.90
41310;DHT22;27057;51.438;-0.010;2023-08-31T11:35:39;18.80;99.90
41310;DHT22;27057;51.438;-0.010;2023-08-31T11:38:10;18.80;99.90
41310;DHT22;27057;51.438;-0.010;2023-08-31T11:40:39;18.90;99.90
41310;DHT22;27057;51.438;-0.010;2023-08-31T11:43:07;19.00;99.90
41310;DHT22;27057;51.438;-0.010;2023-08-31T11:45:36;19.10;99.90
41310;DHT22;27057;51.438;-0.010;2023-08-31T11:48:05;19.10;99.90
41310;DHT22;27057;51.438;-0.010;2023-08-31T11:50:33;19.10;99.90
41310;DHT22;27057;51.438;-0.010;2023-08-31T11:53:00;19.20;99.90
41310;DHT22;27057;51.438;-0.010;2023-08-31T11:55:28;19.30;99.90
41310;DHT22;27057;51.438;-0.010;2023-08-31T11:57:56;19.60;99.90
41310;DHT22;27057;51.438;-0.010;2023-08-31T12:00:23;19.80;99.90
41310;DHT22;27057;51.438;-0.010;2023-08-31T12:02:59;19.90;99.90
41310;DHT22;27057;51.438;-0.010;2023-08-31T12:05:27;19.80;99.90
41310;DHT22;27057;51.438;-0.010;2023-08-31T12:07:56;19.80;99.90
41310;DHT22;27057;51.438;-0.010;2023-08-31T12:10:24;19.70;99.90
41310;DHT22;27057;51.438;-0.010;2023-08-31T12:12:52;19.60;99.90
41310;DHT22;27057;51.438;-0.010;2023-08-31T12:15:20;19.50;99.90
41310;DHT22;27057;51.438;-0.010;2023-08-31T12:17:50;19.50;99.90
41310;DHT22;27057;51.438;-0.010;2023-08-31T12:20:26;19.50;99.90
41310;DHT22;27057;51.438;-0.010;2023-08-31T12:22:54;19.50;99.90
41310;DHT22;27057;51.438;-0.010;2023-08-31T12:25:22;19.40;99.90
41310;DHT22;27057;51.438;-0.010;2023-08-31T12:27:49;19.30;99.90
41310;DHT22;27057;51.438;-0.010;2023-08-31T12:30:20;19.20;99.90
41310;DHT22;27057;51.438;-0.010;2023-08-31T12:32:47;19.10;99.90
41310;DHT22;27057;51.438;-0.010;2023-08-31T12:35:15;19.20;99.90
41310;DHT22;27057;51.438;-0.010;2023-08-31T12:37:43;19.10;99.90
41310;DHT22;27057;51.438;-0.010;2023-08-31T12:40:10;19.20;99.90
41310;DHT22;27057;51.438;-0.010;2023-08-31T12:42:38;19.20;99.90
41310;DHT22;27057;51.438;-0.010;2023-08-31T12:45:05;19.10;99.90
41310;DHT22;27057;51.438;-0.010;2023-08-31T12:47:34;19.10;99.90
41310;DHT22;27057;51.438;-0.010;2023-08-31T12:50:02;19.10;99.90
41310;DHT22;27057;51.438;-0.010;2023-08-31T12:52:30;19.10;99.90
41310;DHT22;27057;51.438;-0.010;2023-08-31T12:54:57;19.10;99.90
41310;DHT22;27057;51.438;-0.010;2023-08-31T12:57:25;19.00;99.90
41310;DHT22;27057;51.438;-0.010;2023-08-31T12:59:52;19.00;99.90
41310;DHT22;27057;51.438;-0.010;2023-08-31T13:02:19;18.90;99.90
41310;DHT22;27057;51.438;-0.010;2023-08-31T13:04:47;18.90;99.90
41310;DHT22;27057;51.438;-0.010;2023-08-31T13:07:15;19.00;99.90
41310;DHT22;27057;51.438;-0.010;2023-08-31T13:09:42;19.10;99.90
41310;DHT22;27057;51.438;-0.010;2023-08-31T13:12:09;19.20;99.90
41310;DHT22;27057;51.438;-0.010;2023-08-31T13:14:37;19.20;99.90
41310;DHT22;27057;51.438;-0.010;2023-08-31T13:17:04;19.10;99.90
41310;DHT22;27057;51.438;-0.010;2023-08-31T13:19:32;19.00;99.90
41310;DHT22;27057;51.438;-0.010;2023-08-31T13:22:00;18.90;99.90
41310;DHT22;27057;51.438;-0.010;2023-08-31T13:24:27;18.80;99.90
41310;DHT22;27057;51.438;-0.010;2023-08-31T13:26:55;18.80;99.90
41310;DHT22;27057;51.438;-0.010;2023-08-31T13:29:22;18.70;99.90
41310;DHT22;27057;51.438;-0.010;2023-08-31T13:31:50;18.60;99.90
41310;DHT22;27057;51.438;-0.010;2023-08-31T13:34:17;18.60;99.90
41310;DHT22;27057;51.438;-0.010;2023-08-31T13:36:45;18.60;99.90
41310;DHT22;27057;51.438;-0.010;2023-08-31T13:39:13;18.70;99.90
41310;DHT22;27057;51.438;-0.010;2023-08-31T13:41:41;18.80;99.90
41310;DHT22;27057;51.438;-0.010;2023-08-31T13:44:08;18.80;99.90
41310;DHT22;27057;51.438;-0.010;2023-08-31T13:46:35;18.80;99.90
41310;DHT22;27057;51.438;-0.010;2023-08-31T13:49:02;18.80;99.90
41310;DHT22;27057;51.438;-0.010;2023-08-31T13:51:30;18.70;99.90
41310;DHT22;27057;51.438;-0.010;2023-08-31T13:53:57;18.70;99.90
41310;DHT22;27057;51.438;-0.010;2023-08-31T13:56:24;18.60;99.90
41310;DHT22;27057;51.438;-0.010;2023-08-31T13:58:52;18.60;99.90
41310;DHT22;27057;51.438;-0.010;2023-08-31T14:01:19;18.60;99.90
41310;DHT22;27057;51.438;-0.010;2023-08-31T14:03:47;18.50;99.90
41310;DHT22;27057;51.438;-0.010;2023-08-31T14:06:14;18.50;99.90
41310;DHT22;27057;51.438;-0.010;2023-08-31T14:08:42;18.40;99.90
41310;DHT22;27057;51.438;-0.010;2023-08-31T14:11:09;18.40;99.90
41310;DHT22;27057;51.438;-0.010;2023-08-31T14:13:37;18.50;99.90
41310;DHT22;27057;51.438;-0.010;2023-08-31T14:16:04;18.50;99.90
41310;DHT22;27057;51.438;-0.010;2023-08-31T14:18:31;18.50;99.90
41310;DHT22;27057;51.438;-0.010;2023-08-31T14:20:59;18.50;99.90
41310;DHT22;27057;51.438;-0.010;2023-08-31T14:23:28;18.60;99.90
41310;DHT22;27057;51.438;-0.010;2023-08-31T14:26:02;18.50;99.90
41310;DHT22;27057;51.438;-0.010;2023-08-31T14:28:30;18.60;99.90
41310;DHT22;27057;51.438;-0.010;2023-08-31T14:31:04;18.60;99.90
41310;DHT22;27057;51.438;-0.010;2023-08-31T14:33:31;18.50;99.90
41310;DHT22;27057;51.438;-0.010;2023-08-31T14:35:59;18.40;99.90
41310;DHT22;27057;51.438;-0.010;2023-08-31T14:38:26;18.40;99.90
41310;DHT22;27057;51.438;-0.010;2023-08-31T14:40:54;18.40;99.90
41310;DHT22;27057;51.438;-0.010;2023-08-31T14:43:22;18.40;99.90
41310;DHT22;27057;51.438;-0.010;2023-08-31T14:45:49;18.40;99.90
41310;DHT22;27057;51.438;-0.010;2023-08-31T14:48:17;18.50;99.90
41310;DHT22;27057;51.438;-0.010;2023-08-31T14:50:44;18.50;99.90
41310;DHT22;27057;51.438;-0.010;2023-08-31T14:53:12;18.40;99.90
41310;DHT22;27057;51.438;-0.010;2023-08-31T14:55:39;18.40;99.90
41310;DHT22;27057;51.438;-0.010;2023-08-31T14:58:06;18.30;99.90
41310;DHT22;27057;51.438;-0.010;2023-08-31T15:00:34;18.30;99.90
41310;DHT22;27057;51.438;-0.010;2023-08-31T15:03:01;18.30;99.90
41310;DHT22;27057;51.438;-0.010;2023-08-31T15:05:30;18.40;99.90
41310;DHT22;27057;51.438;-0.010;2023-08-31T15:07:57;18.40;99.90
41310;DHT22;27057;51.438;-0.010;2023-08-31T15:10:27;18.50;99.90
41310;DHT22;27057;51.438;-0.010;2023-08-31T15:12:54;18.60;99.90
41310;DHT22;27057;51.438;-0.010;2023-08-31T15:15:28;18.60;99.90
41310;DHT22;27057;51.438;-0.010;2023-08-31T15:17:56;18.70;99.90
41310;DHT22;27057;51.438;-0.010;2023-08-31T15:20:23;18.80;99.90
41310;DHT22;27057;51.438;-0.010;2023-08-31T15:22:53;18.60;99.90
41310;DHT22;27057;51.438;-0.010;2023-08-31T15:25:21;18.50;99.90
41310;DHT22;27057;51.438;-0.010;2023-08-31T15:27:48;18.40;99.90
41310;DHT22;27057;51.438;-0.010;2023-08-31T15:30:15;18.30;99.90
41310;DHT22;27057;51.438;-0.010;2023-08-31T15:32:43;18.30;99.90
41310;DHT22;27057;51.438;-0.010;2023-08-31T15:35:10;18.20;99.90